East Orleans, MA (02643)

3:11 PM EST on January 24, 2017 (GMT -0500)
Countryside Orleans | | Change Station
Active Advisory: Small Craft Advisory Active Notice: Public Information Statement

Elev 95 ft 41.79 °N, 69.94 °W | Updated 14 minutes ago

Overcast
Overcast
49.1 °F
Feels Like 49 °F
N
1.0
Wind Variable Wind from SSW
Gusts 2.0 mph

Today
High -- | Low -- °F
--% Chance of Precip.
Yesterday
High -- | Low -- °F
Precip. -- in
Pressure 29.17 in
Visibility 2.0 miles
Clouds Mostly Cloudy 300 ft
Overcast 10000 ft
Windchill 49 °F
Dew Point 48 °F
Humidity 97%
Rainfall 0.97 in
Snow Depth Not available.
6:58 AM 4:45 PM
Waning Crescent, 10% visible
SPECI KCQX 242005Z AUTO 19008G17KT 130V250 2SM BR BKN003 OVC100 11/11 A2917 RMK AO2 T01110106
Pressure 29.17 in
Visibility 2.0 miles
Clouds Mostly Cloudy 300 ft
Overcast 10000 ft
Windchill 49 °F
Dew Point 48 °F
Humidity 97%
Rainfall 0.97 in
Snow Depth Not available.
6:58 AM 4:45 PM
Waning Crescent, 10% visible
SPECI KCQX 242005Z AUTO 19008G17KT 130V250 2SM BR BKN003 OVC100 11/11 A2917 RMK AO2 T01110106

Get Your Daily Forecast Email!

Thanks for signing up!

Be on the lookout for a verification email in your inbox.

You'll start receiving the daily forecast at 8 AM.

×

10-Day Weather Forecast

Almanac

Astronomy

Jan. 24, 2017 Rise Set
Actual Time
Civil Twilight
Nautical Twilight
Astronomical Twilight
Moon
Length of Visible Light
Length of Day
Tomorrow will be .
, % of the Moon is Illuminated

Today's Extremes

State Highs State Lows

Community

WunderPhotos

Upload Photos

1,962,540 photos uploaded!

WunderBlog® & News

Nearby

Air Quality

  Air Quality AQ Index Pollutant
Not available.

Snow Depth

Station Depth Elevation

Earthquake Activity

City Distance Mag. Time & Date
Minimum magnitude displayed is 2.5.

Coastal Water Temperatures

Place Temperature

Stations

Nearby Weather Stations

Station Location Temp. Windchill Dew Point Humidity Wind Precip. Elev Updated Type
                   

Watches & Warnings

Small Craft Advisory
Issued: 11:15 AM EST Jan. 24, 2017 – National Weather Service

... Small Craft Advisory now in effect until 5 PM EST Wednesday...

* winds and seas... northwest winds 10 to 20 kt with gusts up to 30 kt.
Seas 10 to 15 feet.

Precautionary/preparedness actions...

A Small Craft Advisory means that wind speeds of 25 to 33 knots
are expected to produce hazardous wave conditions to small craft.
Inexperienced mariners... especially those operating smaller
vessels should avoid navigating in these conditions.